Time;durP1;ratioP1;P1;durP2;ratioP2;P2;SDS_P1;SDS_P2;PMS_P1;PMS_P2;Temp;Humidity;BMP_temperature;BMP_pressure;BME280_temperature;BME280_humidity;BME280_pressure;Samples;Min_cycle;Max_cycle;Signal;HPM_P1;HPM_P2
2022/03/02 00:00:12;;;;;;;36.08;20.58;;;;;;;4.44;72.53;102609.19;5051015;28;20244;-79
2022/03/02 00:02:38;;;;;;;38.05;20.05;;;;;;;4.45;72.61;102607.53;5043528;28;20145;-79
2022/03/02 00:05:07;;;;;;;40.30;20.23;;;;;;;4.43;72.00;102609.06;5041976;28;20071;-79
2022/03/02 00:07:32;;;;;;;37.65;19.95;;;;;;;4.42;71.98;102612.41;5053854;28;20009;-80
2022/03/02 00:09:58;;;;;;;37.67;20.30;;;;;;;4.40;71.78;102609.72;5050020;28;20055;-80
2022/03/02 00:12:23;;;;;;;38.50;19.92;;;;;;;4.39;71.79;102614.78;5054848;28;20037;-80
2022/03/02 00:14:48;;;;;;;36.05;18.67;;;;;;;4.35;71.56;102621.38;5046353;28;20064;-80
2022/03/02 00:17:14;;;;;;;39.15;20.10;;;;;;;4.33;71.58;102621.28;5045657;28;20279;-80
2022/03/02 00:19:40;;;;;;;31.42;18.23;;;;;;;4.30;71.12;102618.47;5056499;28;20029;-80
2022/03/02 00:22:05;;;;;;;39.65;19.10;;;;;;;4.29;71.75;102615.75;5049611;28;20024;-80
2022/03/02 00:24:31;;;;;;;36.70;19.85;;;;;;;4.26;71.40;102611.25;5046388;28;20025;-80
2022/03/02 00:26:57;;;;;;;39.72;19.60;;;;;;;4.24;71.27;102612.78;5041851;28;20025;-80
2022/03/02 00:29:23;;;;;;;38.28;19.70;;;;;;;4.24;71.05;102612.78;5043690;28;20024;-80
2022/03/02 00:31:48;;;;;;;37.90;19.35;;;;;;;4.21;71.46;102612.56;5044064;28;20025;-80
2022/03/02 00:34:14;;;;;;;37.83;19.80;;;;;;;4.20;71.65;102615.94;5046540;28;20024;-80
2022/03/02 00:36:39;;;;;;;36.83;19.45;;;;;;;4.17;71.54;102607.94;5044516;28;20033;-79
2022/03/02 00:39:05;;;;;;;37.28;20.45;;;;;;;4.17;71.08;102610.50;5041327;28;20229;-79
2022/03/02 00:41:30;;;;;;;37.10;20.02;;;;;;;4.15;71.32;102612.09;5042049;28;20076;-79
2022/03/02 00:43:56;;;;;;;36.88;19.55;;;;;;;4.13;71.83;102608.50;5041862;28;20029;-79
2022/03/02 00:46:26;;;;;;;37.35;20.85;;;;;;;4.12;71.20;102607.59;5041467;28;20127;-79
2022/03/02 00:48:52;;;;;;;39.42;20.60;;;;;;;4.09;71.56;102602.19;5040258;28;20075;-79
2022/03/02 00:51:17;;;;;;;37.50;19.60;;;;;;;4.08;71.74;102609.81;5044572;28;20020;-79
2022/03/02 00:53:43;;;;;;;38.15;19.15;;;;;;;4.03;71.27;102600.78;5044962;28;20025;-79
2022/03/02 00:56:09;;;;;;;40.05;20.88;;;;;;;4.00;71.69;102604.94;5049079;28;20029;-79
2022/03/02 00:58:34;;;;;;;37.40;19.15;;;;;;;3.97;71.91;102598.66;5042254;28;20017;-79
2022/03/02 01:00:59;;;;;;;37.83;19.92;;;;;;;3.93;71.85;102592.34;5041990;28;20191;-79
2022/03/02 01:03:24;;;;;;;38.95;19.42;;;;;;;3.89;72.05;102594.56;5052888;28;20346;-79
2022/03/02 01:05:50;;;;;;;36.80;20.13;;;;;;;3.86;71.65;102592.66;5046867;28;20010;-79
2022/03/02 01:08:15;;;;;;;36.42;19.75;;;;;;;3.83;71.87;102585.56;5052904;28;20263;-80
2022/03/02 01:10:41;;;;;;;34.95;19.35;;;;;;;3.82;71.98;102583.78;5053240;28;20214;-80
2022/03/02 01:13:06;;;;;;;34.67;19.05;;;;;;;3.81;71.97;102584.56;5041965;28;20033;-80
2022/03/02 01:15:31;;;;;;;36.42;19.27;;;;;;;3.79;73.02;102582.63;5038972;28;20333;-80
2022/03/02 01:17:57;;;;;;;38.13;19.42;;;;;;;3.76;73.18;102577.22;5046431;28;20022;-81
2022/03/02 01:20:22;;;;;;;37.45;19.52;;;;;;;3.73;73.13;102577.00;5039226;28;20386;-80
2022/03/02 01:22:48;;;;;;;35.05;19.05;;;;;;;3.69;72.30;102575.81;5044648;28;20028;-80
2022/03/02 01:25:13;;;;;;;37.70;19.85;;;;;;;3.67;72.24;102579.09;5048357;28;20009;-80
2022/03/02 01:27:39;;;;;;;35.33;18.90;;;;;;;3.64;71.96;102574.56;5048670;28;20045;-81
2022/03/02 01:30:06;;;;;;;37.72;19.30;;;;;;;3.61;71.90;102570.06;5044482;28;20260;-80
2022/03/02 01:32:32;;;;;;;35.63;18.25;;;;;;;3.58;71.70;102564.69;5047979;28;20029;-80
2022/03/02 01:34:58;;;;;;;38.78;18.80;;;;;;;3.57;72.03;102567.13;5047582;28;20029;-80
2022/03/02 01:37:23;;;;;;;37.25;19.23;;;;;;;3.55;71.56;102558.34;5048164;28;20017;-80
2022/03/02 01:39:48;;;;;;;37.05;19.10;;;;;;;3.53;72.17;102560.81;5038661;28;20017;-80
2022/03/02 01:42:14;;;;;;;37.75;18.25;;;;;;;3.52;71.84;102559.03;5049632;28;20089;-80
2022/03/02 01:44:39;;;;;;;35.33;18.70;;;;;;;3.52;72.06;102563.28;5051716;28;20092;-80
2022/03/02 01:47:06;;;;;;;34.72;18.45;;;;;;;3.51;72.18;102554.66;5047405;28;20205;-80
2022/03/02 01:49:33;;;;;;;37.13;18.63;;;;;;;3.50;71.74;102554.53;5044485;28;20026;-80
2022/03/02 01:51:58;;;;;;;32.90;17.58;;;;;;;3.47;71.56;102550.03;5048805;28;20021;-80
2022/03/02 01:54:23;;;;;;;31.48;17.08;;;;;;;3.47;70.94;102557.75;5044204;28;20024;-80
2022/03/02 01:56:49;;;;;;;34.63;17.83;;;;;;;3.45;71.28;102549.03;5045862;28;20021;-80
2022/03/02 01:59:15;;;;;;;31.67;16.88;;;;;;;3.44;71.42;102549.78;5051602;28;20258;-80
2022/03/02 02:01:41;;;;;;;32.50;17.05;;;;;;;3.43;71.22;102548.91;5047120;28;20084;-80
2022/03/02 02:04:06;;;;;;;33.25;17.48;;;;;;;3.44;71.46;102544.63;5045330;28;20032;-80
2022/03/02 02:06:32;;;;;;;34.00;17.92;;;;;;;3.43;71.40;102547.97;5041797;28;20265;-79
2022/03/02 02:09:02;;;;;;;34.60;17.20;;;;;;;3.44;72.06;102542.06;5045464;28;20021;-79
2022/03/02 02:11:28;;;;;;;35.30;17.67;;;;;;;3.44;71.46;102540.38;5041178;28;20049;-79
2022/03/02 02:13:54;;;;;;;33.22;17.58;;;;;;;3.44;71.34;102526.59;5045931;28;20027;-79
2022/03/02 02:16:20;;;;;;;32.90;17.50;;;;;;;3.45;71.33;102530.97;5047614;28;20021;-79
2022/03/02 02:18:46;;;;;;;34.22;16.75;;;;;;;3.45;71.19;102531.88;5045451;28;20025;-79
2022/03/02 02:21:12;;;;;;;29.35;15.70;;;;;;;3.48;71.33;102536.38;5046928;28;20078;-79
2022/03/02 02:23:39;;;;;;;32.00;16.48;;;;;;;3.47;71.68;102532.00;5045053;28;20021;-79
2022/03/02 02:26:05;;;;;;;33.20;16.83;;;;;;;3.47;71.57;102530.31;5044538;28;20110;-79
2022/03/02 02:28:31;;;;;;;30.88;16.90;;;;;;;3.46;72.00;102523.38;5041886;28;20084;-79
2022/03/02 02:30:58;;;;;;;29.45;16.38;;;;;;;3.47;71.85;102524.25;5044963;28;20295;-79
2022/03/02 02:33:25;;;;;;;32.13;16.92;;;;;;;3.46;71.59;102523.38;5045278;28;20021;-79
2022/03/02 02:35:51;;;;;;;29.55;16.33;;;;;;;3.48;71.67;102528.66;5049895;28;20271;-79
2022/03/02 02:38:18;;;;;;;29.88;16.17;;;;;;;3.46;71.84;102522.44;5049365;28;20013;-79
2022/03/02 02:40:43;;;;;;;28.55;16.58;;;;;;;3.45;71.65;102521.56;5043793;28;20088;-79
2022/03/02 02:43:09;;;;;;;29.17;15.95;;;;;;;3.45;71.17;102515.53;5047932;28;20008;-79
2022/03/02 02:45:35;;;;;;;30.92;16.80;;;;;;;3.45;71.95;102515.53;5044208;28;20305;-79
2022/03/02 02:48:00;;;;;;;28.98;16.20;;;;;;;3.45;71.20;102510.38;5047317;28;20256;-80
2022/03/02 02:50:29;;;;;;;30.52;16.17;;;;;;;3.43;71.40;102511.91;5036536;28;20033;-80
2022/03/02 02:52:56;;;;;;;31.20;15.82;;;;;;;3.43;71.35;102514.47;5044303;28;20009;-80
2022/03/02 02:55:24;;;;;;;29.60;16.35;;;;;;;3.43;71.45;102511.91;5043553;28;20064;-80
2022/03/02 02:57:50;;;;;;;30.85;15.55;;;;;;;3.43;71.15;102510.25;5043635;28;20278;-81
2022/03/02 03:00:18;;;;;;;30.80;15.73;;;;;;;3.44;70.96;102518.88;5043089;28;20013;-80
2022/03/02 03:02:45;;;;;;;30.73;16.20;;;;;;;3.43;71.15;102517.97;5053136;28;20123;-80
2022/03/02 03:05:12;;;;;;;29.70;15.88;;;;;;;3.42;71.14;102512.72;5055519;28;20085;-80
2022/03/02 03:07:42;;;;;;;30.35;16.35;;;;;;;3.43;70.31;102511.91;5048088;28;20067;-80
2022/03/02 03:10:10;;;;;;;29.27;15.63;;;;;;;3.43;69.75;102511.91;5044509;28;20032;-80
2022/03/02 03:12:36;;;;;;;26.58;14.98;;;;;;;3.44;69.44;102513.72;5043422;28;20056;-80
2022/03/02 03:15:07;;;;;;;29.73;15.55;;;;;;;3.44;70.16;102508.56;5044643;28;20025;-80
2022/03/02 03:17:33;;;;;;;30.02;16.27;;;;;;;3.43;69.37;102506.75;5046281;28;20053;-79
2022/03/02 03:19:59;;;;;;;32.17;15.90;;;;;;;3.43;69.45;102506.75;5046624;28;20037;-79
2022/03/02 03:22:25;;;;;;;26.55;15.32;;;;;;;3.42;69.30;102511.03;5046969;28;20021;-79
2022/03/02 03:24:51;;;;;;;28.73;15.52;;;;;;;3.41;69.25;102508.31;5046685;28;20359;-79
2022/03/02 03:27:16;;;;;;;30.73;16.00;;;;;;;3.40;69.29;102497.09;5043005;28;20021;-79
2022/03/02 03:29:41;;;;;;;29.52;15.98;;;;;;;3.39;69.26;102510.78;5044057;28;20013;-79
2022/03/02 03:32:07;;;;;;;29.98;16.65;;;;;;;3.38;69.24;102506.38;5040775;28;20025;-79
2022/03/02 03:34:33;;;;;;;28.33;15.95;;;;;;;3.37;70.19;102503.69;5045554;28;20223;-79
2022/03/02 03:36:58;;;;;;;29.77;15.98;;;;;;;3.34;70.31;102512.06;5043420;28;20319;-79
2022/03/02 03:39:24;;;;;;;29.50;15.63;;;;;;;3.31;70.02;102505.00;5047348;28;20029;-79
2022/03/02 03:41:49;;;;;;;28.90;15.98;;;;;;;3.29;69.96;102509.13;5043668;28;20084;-79
2022/03/02 03:44:14;;;;;;;28.85;15.80;;;;;;;3.25;70.54;102501.94;5043454;28;20048;-79
2022/03/02 03:46:40;;;;;;;29.33;16.08;;;;;;;3.22;70.67;102491.38;5048785;28;20028;-80
2022/03/02 03:49:05;;;;;;;31.52;16.42;;;;;;;3.22;70.85;102504.28;5046417;28;20024;-80
2022/03/02 03:51:31;;;;;;;28.73;15.70;;;;;;;3.21;70.69;102493.84;5044973;28;20032;-80
2022/03/02 03:53:56;;;;;;;32.20;16.65;;;;;;;3.19;70.75;102496.31;5044705;28;20025;-80
2022/03/02 03:56:22;;;;;;;30.15;15.88;;;;;;;3.17;71.28;102489.22;5041242;28;20052;-80
2022/03/02 03:58:47;;;;;;;28.92;15.75;;;;;;;3.13;70.95;102490.66;5044284;28;20286;-80
2022/03/02 04:01:13;;;;;;;29.10;15.77;;;;;;;3.10;70.90;102498.13;5042750;28;20029;-80
2022/03/02 04:03:38;;;;;;;28.70;16.13;;;;;;;3.05;70.96;102490.03;5044803;28;20013;-80
2022/03/02 04:06:04;;;;;;;28.25;15.75;;;;;;;3.04;71.32;102488.25;5046633;28;20056;-80
2022/03/02 04:08:29;;;;;;;27.95;15.00;;;;;;;3.03;71.02;102485.56;5044177;28;20275;-80
2022/03/02 04:10:55;;;;;;;29.67;15.50;;;;;;;3.00;71.57;102488.78;5043331;28;20037;-80
2022/03/02 04:13:20;;;;;;;28.98;16.25;;;;;;;3.00;71.12;102487.84;5045419;28;20036;-80
2022/03/02 04:15:46;;;;;;;29.45;15.07;;;;;;;2.93;71.01;102479.63;5044688;28;20017;-80
2022/03/02 04:18:12;;;;;;;28.88;16.23;;;;;;;2.91;71.11;102478.63;5042379;28;20045;-79
2022/03/02 04:20:38;;;;;;;27.25;15.35;;;;;;;2.89;71.19;102474.13;5052380;28;20020;-79
2022/03/02 04:23:05;;;;;;;31.02;15.38;;;;;;;2.87;71.46;102478.22;5042296;28;20145;-79
2022/03/02 04:25:31;;;;;;;30.58;15.57;;;;;;;2.85;71.30;102477.22;5043077;28;20035;-79
2022/03/02 04:27:56;;;;;;;27.77;15.15;;;;;;;2.82;71.54;102461.53;5039927;28;20017;-79
2022/03/02 04:30:22;;;;;;;28.15;14.82;;;;;;;2.80;70.76;102457.94;5041973;28;20048;-79
2022/03/02 04:32:48;;;;;;;26.92;14.88;;;;;;;2.78;70.62;102462.94;5042340;28;20049;-79
2022/03/02 04:35:13;;;;;;;26.45;14.88;;;;;;;2.74;70.28;102463.50;5044556;28;20033;-79
2022/03/02 04:37:39;;;;;;;27.17;14.57;;;;;;;2.69;70.85;102462.22;5039960;28;20120;-79
2022/03/02 04:40:11;;;;;;;26.38;14.63;;;;;;;2.68;70.83;102460.41;5050269;28;20029;-79
2022/03/02 04:42:37;;;;;;;26.67;14.63;;;;;;;2.66;70.64;102461.97;5047188;28;20094;-79
2022/03/02 04:45:04;;;;;;;26.95;15.02;;;;;;;2.64;71.21;102456.69;5042154;28;20223;-79
2022/03/02 04:47:29;;;;;;;26.98;14.38;;;;;;;2.65;71.05;102458.50;5048275;28;20260;-80
2022/03/02 04:49:54;;;;;;;26.08;14.95;;;;;;;2.65;71.24;102447.28;5045266;28;20032;-80
2022/03/02 04:52:20;;;;;;;29.75;15.02;;;;;;;2.65;71.83;102447.28;5047269;28;20032;-80
2022/03/02 04:57:29;;;;;;;25.35;13.98;;;;;;;2.61;73.16;102447.03;5040031;28;20040;-80
2022/03/02 04:59:55;;;;;;;24.58;14.43;;;;;;;2.59;72.96;102443.44;5045631;28;20260;-80
2022/03/02 05:02:21;;;;;;;27.02;14.18;;;;;;;2.57;72.39;102442.41;5052206;28;20265;-80
2022/03/02 05:04:46;;;;;;;27.60;14.48;;;;;;;2.55;72.47;102441.41;5039855;28;20029;-80
2022/03/02 05:07:12;;;;;;;25.70;13.77;;;;;;;2.54;72.78;102441.28;5050007;28;20021;-80
2022/03/02 05:09:37;;;;;;;27.63;14.43;;;;;;;2.53;71.69;102448.06;5043662;28;20053;-80
2022/03/02 05:12:03;;;;;;;26.42;14.18;;;;;;;2.51;72.02;102447.06;5047183;28;20032;-80
2022/03/02 05:14:30;;;;;;;28.73;14.13;;;;;;;2.47;72.21;102447.56;5045905;28;20080;-80
2022/03/02 05:16:55;;;;;;;26.70;14.15;;;;;;;2.46;72.24;102445.78;5046830;28;20032;-79
2022/03/02 05:19:21;;;;;;;25.10;14.27;;;;;;;2.46;71.65;102443.19;5047418;28;20022;-79
2022/03/02 05:21:47;;;;;;;28.92;14.75;;;;;;;2.44;72.33;102448.22;5046523;28;20264;-79
2022/03/02 05:24:13;;;;;;;25.58;13.60;;;;;;;2.42;71.09;102446.31;5051073;28;20017;-79
2022/03/02 05:26:38;;;;;;;26.80;14.48;;;;;;;2.41;71.56;102444.50;5039304;28;20018;-79
2022/03/02 05:29:04;;;;;;;25.60;14.70;;;;;;;2.38;71.51;102436.53;5038785;28;20077;-79
2022/03/02 05:31:29;;;;;;;29.58;14.55;;;;;;;2.39;70.81;102430.59;5045748;28;20024;-79
2022/03/02 05:33:54;;;;;;;26.80;13.98;;;;;;;2.38;71.66;102436.53;5043143;28;20211;-79
2022/03/02 05:36:20;;;;;;;27.30;14.55;;;;;;;2.37;71.70;102430.47;5044029;28;20021;-79
2022/03/02 05:38:45;;;;;;;23.92;12.95;;;;;;;2.38;71.25;102426.25;5046090;28;20048;-79
2022/03/02 05:41:11;;;;;;;24.58;13.65;;;;;;;2.39;71.02;102428.03;5044511;28;20028;-79
2022/03/02 05:43:36;;;;;;;24.33;14.00;;;;;;;2.38;71.21;102422.00;5046276;28;20018;-79
2022/03/02 05:46:02;;;;;;;26.42;13.70;;;;;;;2.38;71.00;102424.56;5044444;28;20093;-79
2022/03/02 05:48:28;;;;;;;23.38;13.10;;;;;;;2.39;71.37;102428.03;5043915;28;20033;-79
2022/03/02 05:50:53;;;;;;;27.63;14.25;;;;;;;2.39;71.24;102425.47;5045940;28;20023;-79
2022/03/02 05:53:18;;;;;;;22.77;12.63;;;;;;;2.37;71.44;102419.31;5044020;28;20125;-79
2022/03/02 05:55:44;;;;;;;25.00;13.77;;;;;;;2.35;70.75;102431.16;5049605;28;20227;-79
2022/03/02 05:58:09;;;;;;;24.70;13.45;;;;;;;2.33;70.74;102433.59;5050252;28;20105;-79
2022/03/02 06:00:36;;;;;;;25.88;13.77;;;;;;;2.30;70.55;102435.00;5053829;28;20284;-79
2022/03/02 06:03:02;;;;;;;24.20;13.40;;;;;;;2.28;71.20;102436.56;5044104;28;21038;-79
2022/03/02 06:05:27;;;;;;;25.23;12.75;;;;;;;2.28;70.81;102436.56;5045606;28;20047;-79
2022/03/02 06:07:52;;;;;;;25.13;13.63;;;;;;;2.24;71.02;102433.69;5055191;28;20044;-80
2022/03/02 06:10:19;;;;;;;26.40;13.35;;;;;;;2.22;70.93;102435.25;5056816;28;20016;-79
2022/03/02 06:12:45;;;;;;;25.75;13.70;;;;;;;2.20;71.29;102431.69;5057149;28;20053;-79
2022/03/02 06:15:12;;;;;;;25.63;13.68;;;;;;;2.19;70.75;102435.00;5050242;28;20029;-79
2022/03/02 06:17:38;;;;;;;26.17;13.40;;;;;;;2.19;71.13;102435.00;5047572;28;20043;-79
2022/03/02 06:20:04;;;;;;;28.85;13.32;;;;;;;2.19;70.82;102437.59;5035522;28;20021;-79
2022/03/02 06:22:30;;;;;;;22.65;12.35;;;;;;;2.19;70.30;102434.13;5044569;28;20029;-79
2022/03/02 06:24:57;;;;;;;25.75;13.15;;;;;;;2.19;70.42;102444.41;5047635;28;20025;-79
2022/03/02 06:27:22;;;;;;;24.77;13.50;;;;;;;2.18;71.15;102448.63;5046929;28;20045;-79
2022/03/02 06:29:48;;;;;;;23.83;12.45;;;;;;;2.17;70.64;102441.72;5041051;28;20020;-79
2022/03/02 06:32:14;;;;;;;24.98;13.10;;;;;;;2.15;70.90;102440.66;5043954;28;20136;-79
2022/03/02 06:34:39;;;;;;;24.95;13.10;;;;;;;2.14;71.45;102443.13;5043115;28;20049;-79
2022/03/02 06:37:06;;;;;;;28.40;13.93;;;;;;;2.13;71.00;102443.88;5044279;28;20024;-79
2022/03/02 06:39:31;;;;;;;22.45;12.55;;;;;;;2.12;71.29;102436.97;5044540;28;20080;-79
2022/03/02 06:42:04;;;;;;;24.95;13.02;;;;;;;2.13;71.50;102444.78;5051917;28;20024;-79
2022/03/02 06:44:44;;;;;;;23.27;13.05;;;;;;;2.14;70.89;102445.69;5041882;28;20031;-79
2022/03/02 06:47:10;;;;;;;22.38;13.07;;;;;;;2.12;70.27;102450.69;5045605;28;20097;-80
2022/03/02 06:49:51;;;;;;;24.98;13.30;;;;;;;2.10;70.76;102444.53;5042244;28;20077;-80
2022/03/02 06:52:18;;;;;;;23.95;13.15;;;;;;;2.11;70.02;102451.47;5039821;28;20025;-80
2022/03/02 06:54:48;;;;;;;22.92;13.05;;;;;;;2.10;70.36;102454.81;5049803;28;20325;-80
2022/03/02 06:57:17;;;;;;;27.52;13.65;;;;;;;2.10;70.62;102454.81;5055325;28;20017;-80
2022/03/02 06:59:49;;;;;;;23.10;13.20;;;;;;;2.08;70.11;102457.25;5038165;28;20025;-81
2022/03/02 07:02:24;;;;;;;24.45;13.48;;;;;;;2.08;70.22;102458.91;5042070;28;20013;-80
2022/03/02 07:04:52;;;;;;;26.67;13.60;;;;;;;2.10;70.04;102459.97;5044768;28;20016;-81
2022/03/02 07:07:18;;;;;;;26.52;13.15;;;;;;;2.13;70.18;102460.22;5042769;28;20089;-80
2022/03/02 07:09:46;;;;;;;24.70;13.07;;;;;;;2.16;69.47;102463.03;5048746;28;20017;-80
2022/03/02 07:12:11;;;;;;;25.80;13.07;;;;;;;2.19;69.60;102455.59;5044399;28;20029;-80
2022/03/02 07:14:37;;;;;;;29.05;13.88;;;;;;;2.25;70.00;102456.09;5046239;28;20713;-80
2022/03/02 07:17:04;;;;;;;24.40;13.13;;;;;;;2.30;70.03;102458.16;5042444;28;20051;-79
2022/03/02 07:19:30;;;;;;;23.65;13.30;;;;;;;2.34;69.83;102466.25;5045085;28;20040;-79
2022/03/02 07:22:00;;;;;;;24.45;13.55;;;;;;;2.36;69.75;102454.44;5045097;28;20061;-79
2022/03/02 07:24:31;;;;;;;25.17;14.13;;;;;;;2.41;69.64;102467.66;5041767;28;20016;-79
2022/03/02 07:26:58;;;;;;;23.92;13.43;;;;;;;2.50;68.17;102465.84;5049400;28;20021;-79
2022/03/02 07:29:28;;;;;;;23.80;13.77;;;;;;;2.58;67.90;102466.50;5044295;28;20314;-79
2022/03/02 07:31:57;;;;;;;24.05;13.50;;;;;;;2.65;68.21;102468.78;5043566;28;20029;-79
2022/03/02 07:34:25;;;;;;;25.65;13.88;;;;;;;2.74;68.76;102468.63;5044394;28;20037;-79
2022/03/02 07:36:50;;;;;;;24.20;13.65;;;;;;;2.90;67.25;102469.09;5045062;28;20268;-79
2022/03/02 07:39:16;;;;;;;24.73;13.68;;;;;;;3.01;66.43;102467.38;5042870;28;20085;-79
2022/03/02 07:41:42;;;;;;;25.92;13.88;;;;;;;3.07;66.21;102464.41;5046604;28;20024;-79
2022/03/02 07:44:08;;;;;;;23.70;12.60;;;;;;;3.19;66.95;102462.81;5044760;28;20027;-79
2022/03/02 07:46:33;;;;;;;22.45;13.65;;;;;;;3.36;65.11;102459.00;5039563;28;20047;-79
2022/03/02 07:48:59;;;;;;;24.02;13.68;;;;;;;3.41;64.97;102457.69;5041984;28;20299;-79
2022/03/02 07:51:26;;;;;;;24.50;13.27;;;;;;;3.42;64.26;102453.44;5034613;28;20168;-79
2022/03/02 07:53:58;;;;;;;24.90;12.82;;;;;;;3.46;63.67;102450.31;5029136;28;20025;-79
2022/03/02 07:56:28;;;;;;;23.85;12.95;;;;;;;3.53;63.91;102447.41;5032617;28;20021;-79
2022/03/02 07:58:56;;;;;;;22.92;12.70;;;;;;;3.64;62.77;102449.16;5031591;28;20048;-79
2022/03/02 08:01:22;;;;;;;22.48;12.50;;;;;;;3.80;63.58;102448.66;5033573;28;20100;-79
2022/03/02 08:03:47;;;;;;;23.40;13.15;;;;;;;3.91;62.54;102444.34;5044478;28;20139;-79
2022/03/02 08:06:14;;;;;;;20.80;12.27;;;;;;;3.99;61.86;102438.06;5031714;28;20072;-79
2022/03/02 08:08:40;;;;;;;22.08;12.77;;;;;;;4.03;61.79;102443.47;5041845;28;20029;-79
2022/03/02 08:11:05;;;;;;;22.48;13.18;;;;;;;4.11;61.64;102437.22;5042586;28;20021;-79
2022/03/02 08:13:33;;;;;;;22.23;13.50;;;;;;;4.46;61.31;102436.38;5042080;28;20038;-79
2022/03/02 08:16:00;;;;;;;23.33;13.45;;;;;;;4.83;60.79;102436.50;5035143;28;20276;-79
2022/03/02 08:18:26;;;;;;;22.02;13.73;;;;;;;5.29;59.06;102436.31;5038162;28;20165;-79
2022/03/02 08:20:54;;;;;;;22.25;12.75;;;;;;;5.47;57.59;102436.72;5035509;28;20014;-79
2022/03/02 08:23:21;;;;;;;24.55;13.68;;;;;;;5.33;58.31;102438.31;5030953;28;20029;-79
2022/03/02 08:25:53;;;;;;;21.20;12.50;;;;;;;5.11;58.03;102441.06;5028377;28;20021;-79
2022/03/02 08:28:20;;;;;;;21.00;12.95;;;;;;;4.93;59.65;102444.13;5033309;28;20188;-79
2022/03/02 08:30:49;;;;;;;21.77;12.65;;;;;;;4.81;58.78;102443.25;5039233;28;20037;-79
2022/03/02 08:33:20;;;;;;;21.77;12.57;;;;;;;4.74;59.89;102438.44;5047303;28;20028;-79
2022/03/02 08:35:49;;;;;;;24.17;13.30;;;;;;;4.66;57.92;102433.59;5047499;28;20024;-79
2022/03/02 08:38:15;;;;;;;23.20;13.27;;;;;;;4.63;59.19;102433.34;5047473;28;20025;-79
2022/03/02 08:40:42;;;;;;;21.45;12.63;;;;;;;4.64;60.34;102431.69;5042770;28;20032;-79
2022/03/02 08:43:07;;;;;;;22.08;13.13;;;;;;;4.64;58.33;102430.00;5052603;28;20066;-79
2022/03/02 08:45:32;;;;;;;22.85;12.55;;;;;;;4.66;60.21;102433.59;5059034;28;20256;-79
2022/03/02 08:48:03;;;;;;;20.73;12.63;;;;;;;4.69;59.75;102428.66;5042924;28;20027;-80
2022/03/02 08:50:29;;;;;;;22.25;12.68;;;;;;;4.74;57.93;102430.69;5036987;28;20029;-80
2022/03/02 08:52:57;;;;;;;22.17;12.82;;;;;;;4.76;58.52;102432.56;5035790;28;20017;-80
2022/03/02 08:55:28;;;;;;;21.95;12.82;;;;;;;4.80;58.29;102423.38;5038529;28;20032;-80
2022/03/02 08:57:55;;;;;;;20.67;12.55;;;;;;;4.86;59.63;102421.22;5034784;28;20219;-80
2022/03/02 09:00:20;;;;;;;20.80;12.52;;;;;;;4.92;59.47;102421.66;5033061;28;20029;-80
2022/03/02 09:02:47;;;;;;;17.90;12.20;;;;;;;4.97;58.08;102420.31;5029684;28;20020;-80
2022/03/02 09:05:13;;;;;;;21.63;12.60;;;;;;;5.04;57.03;102421.66;5031004;28;20025;-79
2022/03/02 09:07:40;;;;;;;23.92;12.57;;;;;;;5.09;57.64;102415.13;5031567;28;20104;-79
2022/03/02 09:10:06;;;;;;;22.95;12.88;;;;;;;5.18;57.16;102420.03;5028381;28;20021;-79
2022/03/02 09:12:32;;;;;;;20.95;12.60;;;;;;;5.24;56.20;102417.88;5036802;28;20033;-79
2022/03/02 09:14:58;;;;;;;19.98;11.80;;;;;;;5.31;55.81;102419.22;5037712;28;20041;-79
2022/03/02 09:17:25;;;;;;;20.55;12.15;;;;;;;5.38;56.18;102418.88;5033483;28;20049;-79
2022/03/02 09:19:55;;;;;;;19.33;11.40;;;;;;;5.44;55.05;102421.88;5032185;28;20303;-79
2022/03/02 09:22:23;;;;;;;18.77;11.65;;;;;;;5.49;56.38;102423.09;5036137;28;20013;-79
2022/03/02 09:24:49;;;;;;;18.13;12.07;;;;;;;5.58;56.34;102417.69;5033669;28;20029;-79
2022/03/02 09:27:18;;;;;;;19.88;11.95;;;;;;;5.66;57.00;102411.34;5035350;28;20021;-79
2022/03/02 09:29:46;;;;;;;21.70;12.35;;;;;;;5.77;53.68;102411.19;5040210;28;20150;-78
2022/03/02 09:32:13;;;;;;;21.07;12.50;;;;;;;5.84;54.27;102413.41;5038073;28;20017;-78
2022/03/02 09:34:42;;;;;;;22.08;12.10;;;;;;;5.90;53.21;102406.06;5042310;28;20104;-78
2022/03/02 09:37:11;;;;;;;23.83;12.82;;;;;;;5.97;54.25;102397.00;5042593;28;20013;-78
2022/03/02 09:39:37;;;;;;;22.58;12.70;;;;;;;6.05;55.21;102401.03;5041709;28;20037;-78
2022/03/02 09:42:24;;;;;;;20.45;12.50;;;;;;;6.14;54.46;102401.69;5033876;28;20055;-78
2022/03/02 09:44:58;;;;;;;19.52;11.52;;;;;;;6.23;53.04;102397.09;5043129;28;20037;-78
2022/03/02 09:47:24;;;;;;;21.55;12.85;;;;;;;6.33;52.76;102392.53;5045390;28;20080;-71
2022/03/02 09:49:54;;;;;;;21.27;12.88;;;;;;;6.42;52.63;102385.38;5042764;28;20025;-71
2022/03/02 09:52:21;;;;;;;19.40;12.50;;;;;;;6.50;52.72;102391.03;5033691;28;20021;-71
2022/03/02 09:54:55;;;;;;;18.77;11.35;;;;;;;6.58;54.44;102389.84;5035770;28;20033;-71
2022/03/02 09:57:22;;;;;;;20.17;12.02;;;;;;;6.67;51.95;102385.25;5035757;28;20231;-71
2022/03/02 09:59:53;;;;;;;20.15;12.43;;;;;;;6.75;51.32;102383.19;5039511;28;20026;-71
2022/03/02 10:02:29;;;;;;;19.70;11.40;;;;;;;6.82;52.30;102384.44;5044437;28;20055;-71
2022/03/02 10:04:58;;;;;;;17.48;10.38;;;;;;;6.89;50.32;102376.25;5034664;28;20028;-71
2022/03/02 10:07:28;;;;;;;22.85;12.23;;;;;;;6.99;49.76;102383.81;5044006;28;20359;-71
2022/03/02 10:10:05;;;;;;;19.02;12.18;;;;;;;7.06;50.73;102390.31;5041983;28;20060;-71
2022/03/02 10:12:32;;;;;;;20.25;12.88;;;;;;;7.12;50.67;102385.50;5034061;28;20196;-71
2022/03/02 10:14:58;;;;;;;22.55;11.85;;;;;;;7.16;50.53;102390.06;5032580;28;20014;-71
2022/03/02 10:17:32;;;;;;;19.42;11.57;;;;;;;7.22;48.67;102392.16;5045749;28;20049;-79
2022/03/02 10:20:01;;;;;;;19.60;11.82;;;;;;;7.28;47.30;102389.94;5041109;28;20272;-79
2022/03/02 10:22:44;;;;;;;19.60;11.95;;;;;;;7.34;49.13;102379.94;5045276;28;20025;-79
2022/03/02 10:25:13;;;;;;;20.67;12.18;;;;;;;7.43;48.59;102392.56;5044354;28;20063;-79
2022/03/02 10:28:00;;;;;;;19.85;11.80;;;;;;;7.49;48.20;102383.47;5044475;28;20037;-79
2022/03/02 10:30:31;;;;;;;19.98;11.98;;;;;;;7.59;48.63;102373.66;5045529;28;20040;-79
2022/03/02 10:33:15;;;;;;;18.00;10.85;;;;;;;7.65;46.66;102369.72;5044528;28;20025;-79
2022/03/02 10:35:49;;;;;;;17.88;11.02;;;;;;;7.73;44.94;102367.59;5045742;28;20021;-79
2022/03/02 10:38:20;;;;;;;15.63;10.45;;;;;;;7.82;45.53;102367.25;5045261;28;20208;-79
2022/03/02 10:40:46;;;;;;;19.00;11.50;;;;;;;7.92;46.29;102363.50;5043894;28;20036;-79
2022/03/02 10:43:18;;;;;;;17.98;10.70;;;;;;;8.05;47.34;102360.81;5041914;28;20032;-79
2022/03/02 10:45:49;;;;;;;16.42;11.02;;;;;;;8.16;45.97;102366.63;5045383;28;20063;-79
2022/03/02 10:48:28;;;;;;;18.25;10.48;;;;;;;8.25;45.53;102366.28;5043773;28;20025;-79
2022/03/02 10:50:55;;;;;;;;;;;;;;;8.34;48.33;102369.38;5045615;28;20088;-79
2022/03/02 10:53:25;;;;;;;17.73;10.27;;;;;;;8.42;45.25;102368.13;5043797;28;19901;-79
2022/03/02 10:55:50;;;;;;;18.00;10.93;;;;;;;8.50;44.71;102361.72;5045155;28;20305;-79
2022/03/02 10:58:19;;;;;;;18.75;10.60;;;;;;;8.58;43.34;102364.72;5044225;28;20048;-79
2022/03/02 11:00:46;;;;;;;17.75;10.30;;;;;;;8.66;44.18;102359.97;5045043;28;20089;-79
2022/03/02 11:03:13;;;;;;;18.95;11.68;;;;;;;8.74;45.57;102360.41;5044411;28;20280;-79
2022/03/02 11:05:39;;;;;;;18.15;11.20;;;;;;;8.80;43.59;102356.41;5044334;28;20032;-79
2022/03/02 11:08:05;;;;;;;17.95;11.13;;;;;;;8.85;43.61;102354.97;5043535;28;20040;-79
2022/03/02 11:10:33;;;;;;;18.52;10.95;;;;;;;8.95;45.54;102358.06;5044709;28;20264;-79
2022/03/02 11:13:10;;;;;;;17.63;10.95;;;;;;;8.97;43.16;102339.16;5044295;28;20222;-79
2022/03/02 11:15:53;;;;;;;19.52;11.48;;;;;;;9.03;45.84;102349.88;5035607;28;20057;-79
2022/03/02 11:18:52;;;;;;;19.38;11.52;;;;;;;9.07;44.54;102342.25;5032080;28;20060;-79